createdAt,value
2018-11-28T00:00:36.787Z,21.80
2018-11-28T00:03:19.246Z,23.20
2018-11-28T00:06:03.426Z,21.13
2018-11-28T00:08:45.322Z,23.03
2018-11-28T00:11:28.776Z,22.70
2018-11-28T00:14:12.211Z,23.43
2018-11-28T00:16:53.875Z,22.63
2018-11-28T00:19:36.306Z,21.57
2018-11-28T00:22:18.220Z,22.07
2018-11-28T00:25:00.732Z,22.53
2018-11-28T00:27:43.135Z,22.13
2018-11-28T00:30:26.306Z,21.63
2018-11-28T00:33:08.052Z,23.83
2018-11-28T00:35:49.734Z,22.67
2018-11-28T00:38:31.623Z,22.20
2018-11-28T00:41:13.849Z,21.03
2018-11-28T00:43:55.535Z,22.57
2018-11-28T00:46:40.424Z,23.63
2018-11-28T00:49:22.504Z,21.87
2018-11-28T00:52:04.934Z,23.57
2018-11-28T00:54:47.673Z,21.67
2018-11-28T00:57:29.778Z,24.07
2018-11-28T01:00:14.222Z,23.67
2018-11-28T01:02:56.584Z,23.07
2018-11-28T01:05:38.923Z,23.20
2018-11-28T01:08:22.640Z,22.67
2018-11-28T01:11:04.901Z,22.43
2018-11-28T01:13:47.323Z,22.73
2018-11-28T01:16:42.929Z,21.30
2018-11-28T01:19:24.902Z,23.57
2018-11-28T01:22:07.282Z,22.40
2018-11-28T01:24:49.678Z,21.27
2018-11-28T01:27:32.087Z,22.97
2018-11-28T01:30:17.392Z,21.90
2018-11-28T01:32:59.794Z,23.87
2018-11-28T01:35:42.211Z,22.07
2018-11-28T01:38:24.834Z,24.20
2018-11-28T01:41:06.960Z,23.10
2018-11-28T01:43:49.307Z,20.73
2018-11-28T01:46:32.099Z,23.33
2018-11-28T01:49:14.052Z,22.40
2018-11-28T01:51:56.580Z,23.60
2018-11-28T01:54:46.439Z,22.80
2018-11-28T01:57:28.363Z,21.73
2018-11-28T02:00:12.388Z,22.93
2018-11-28T02:02:56.432Z,23.27
2018-11-28T02:05:38.816Z,21.80
2018-11-28T02:08:21.409Z,22.13
2018-11-28T02:11:04.376Z,22.40
2018-11-28T02:13:45.958Z,22.17
2018-11-28T02:16:27.964Z,23.33
2018-11-28T02:19:10.358Z,21.30
2018-11-28T02:21:52.582Z,22.57
2018-11-28T02:24:43.727Z,21.93
2018-11-28T02:27:25.379Z,23.43
2018-11-28T02:30:10.856Z,22.37
2018-11-28T02:32:53.361Z,21.30
2018-11-28T02:35:35.779Z,22.73
2018-11-28T02:38:18.399Z,23.80
2018-11-28T02:41:00.368Z,22.73
2018-11-28T02:43:42.760Z,22.20
2018-11-28T02:46:30.730Z,22.47
2018-11-28T02:49:12.834Z,22.03
2018-11-28T02:51:55.203Z,22.43
2018-11-28T02:54:37.477Z,22.53
2018-11-28T02:57:19.994Z,23.13
2018-11-28T03:00:02.417Z,23.07
2018-11-28T03:02:45.422Z,21.97
2018-11-28T03:05:27.406Z,22.73
2018-11-28T03:08:10.373Z,23.80
2018-11-28T03:10:52.323Z,22.93
2018-11-28T03:13:34.725Z,22.83
2018-11-28T03:16:18.426Z,22.47
2018-11-28T03:19:00.805Z,21.97
2018-11-28T03:21:42.359Z,22.67
2018-11-28T03:24:25.240Z,22.83
2018-11-28T03:27:07.138Z,22.43
2018-11-28T03:29:49.562Z,23.03
2018-11-28T03:32:34.300Z,23.50
2018-11-28T03:35:16.684Z,22.07
2018-11-28T03:37:58.986Z,22.63
2018-11-28T03:40:43.651Z,23.27
2018-11-28T03:43:25.474Z,22.90
2018-11-28T03:46:07.390Z,22.43
2018-11-28T03:48:51.037Z,22.33
2018-11-28T03:51:33.119Z,24.30
2018-11-28T03:54:15.552Z,22.53
2018-11-28T03:56:58.268Z,24.13
2018-11-28T03:59:40.510Z,23.23
2018-11-28T04:02:22.992Z,23.50
2018-11-28T04:05:06.246Z,23.17
2018-11-28T04:07:47.899Z,23.93
2018-11-28T04:10:30.356Z,23.20
2018-11-28T04:13:12.812Z,23.27
2018-11-28T04:15:55.298Z,23.20
2018-11-28T04:18:37.803Z,22.53
2018-11-28T04:21:21.545Z,21.97
2018-11-28T04:24:03.806Z,22.27
2018-11-28T04:26:46.052Z,22.40
2018-11-28T04:29:29.838Z,22.87
2018-11-28T04:32:11.775Z,22.67
2018-11-28T04:34:54.723Z,22.77
2018-11-28T04:37:37.523Z,23.67
2018-11-28T04:40:20.840Z,23.27
2018-11-28T04:43:03.700Z,23.23
2018-11-28T04:45:46.206Z,22.37
2018-11-28T04:48:28.036Z,22.70
2018-11-28T04:51:10.424Z,21.57
2018-11-28T04:53:53.187Z,23.13
2018-11-28T04:56:35.828Z,22.43
2018-11-28T04:59:17.824Z,21.87
2018-11-28T05:02:01.217Z,22.47
2018-11-28T05:04:43.622Z,22.17
2018-11-28T05:07:29.414Z,21.00
2018-11-28T05:10:18.164Z,22.67
2018-11-28T05:13:00.587Z,22.43
2018-11-28T05:15:42.934Z,22.03
2018-11-28T05:18:24.721Z,19.77
2018-11-28T05:21:07.149Z,20.37
2018-11-28T05:23:49.672Z,20.97
2018-11-28T05:26:34.102Z,21.70
2018-11-28T05:29:16.286Z,21.40
2018-11-28T05:31:58.840Z,21.60
2018-11-28T05:34:40.987Z,20.60
2018-11-28T05:37:23.486Z,20.60
2018-11-28T05:40:09.085Z,22.70
2018-11-28T05:42:51.264Z,21.60
2018-11-28T05:45:33.603Z,21.20
2018-11-28T05:48:17.569Z,21.33
2018-11-28T05:51:00.290Z,20.57
2018-11-28T05:53:42.683Z,20.90
2018-11-28T05:56:24.778Z,21.97
2018-11-28T05:59:07.368Z,20.90
2018-11-28T06:01:50.662Z,21.80
2018-11-28T06:04:33.243Z,19.80
2018-11-28T06:07:16.382Z,21.47
2018-11-28T06:09:59.106Z,20.37
2018-11-28T06:12:48.887Z,21.23
2018-11-28T06:15:31.589Z,23.40
2018-11-28T06:18:13.384Z,22.13
2018-11-28T06:20:55.713Z,23.17
2018-11-28T06:23:38.410Z,20.30
2018-11-28T06:26:20.822Z,20.87
2018-11-28T06:29:02.953Z,21.37
2018-11-28T06:31:45.371Z,22.10
2018-11-28T06:38:11.690Z,19.70
2018-11-28T06:40:52.825Z,20.10
2018-11-28T06:43:34.142Z,20.43
2018-11-28T06:46:16.046Z,19.60
2018-11-28T06:49:00.517Z,21.17
2018-11-28T06:51:42.486Z,21.80
2018-11-28T06:54:25.405Z,20.43
2018-11-28T06:57:07.267Z,20.87
2018-11-28T06:59:48.594Z,22.07
2018-11-28T07:02:30.266Z,19.33
2018-11-28T07:05:12.652Z,21.67
2018-11-28T07:07:53.724Z,22.27
2018-11-28T07:10:36.481Z,21.50
2018-11-28T07:13:17.844Z,23.50
2018-11-28T07:15:59.014Z,22.27
2018-11-28T07:18:52.802Z,20.00
2018-11-28T07:21:34.937Z,19.73
2018-11-28T07:24:16.322Z,19.83
2018-11-28T07:26:58.091Z,21.63
2018-11-28T07:29:39.262Z,18.83
2018-11-28T07:32:20.615Z,18.53
2018-11-28T07:35:04.698Z,19.57
2018-11-28T07:37:46.509Z,17.20
2018-11-28T07:40:30.228Z,19.53
2018-11-28T07:43:12.541Z,18.27
2018-11-28T07:45:53.713Z,18.63
2018-11-28T07:48:35.600Z,18.23
2018-11-28T07:51:17.428Z,18.27
2018-11-28T07:53:59.002Z,18.20
2018-11-28T07:56:40.687Z,18.10
2018-11-28T07:59:21.853Z,18.80
2018-11-28T08:02:03.256Z,19.27
2018-11-28T08:04:46.054Z,19.43
2018-11-28T08:07:28.077Z,19.33
2018-11-28T08:10:19.293Z,19.00
2018-11-28T08:13:00.631Z,19.07
2018-11-28T08:15:42.648Z,18.63
2018-11-28T08:18:25.726Z,18.40
2018-11-28T08:21:07.807Z,18.37
2018-11-28T08:23:49.404Z,18.37
2018-11-28T08:26:36.331Z,19.23
2018-11-28T08:29:18.932Z,18.43
2018-11-28T08:32:01.022Z,18.77
2018-11-28T08:34:45.168Z,18.87
2018-11-28T08:37:26.336Z,17.80
2018-11-28T08:40:09.815Z,18.77
2018-11-28T08:42:51.305Z,17.83
2018-11-28T08:45:32.545Z,17.27
2018-11-28T08:48:17.806Z,18.87
2018-11-28T08:50:59.634Z,17.80
2018-11-28T08:53:41.580Z,16.07
2018-11-28T08:56:25.414Z,17.20
2018-11-28T08:59:07.433Z,16.13
2018-11-28T09:01:48.786Z,16.17
2018-11-28T09:04:34.457Z,16.67
2018-11-28T09:07:15.714Z,16.40
2018-11-28T09:09:57.199Z,16.57
2018-11-28T09:12:38.935Z,16.37
2018-11-28T09:15:23.913Z,15.17
2018-11-28T09:18:05.763Z,17.50
2018-11-28T09:20:47.443Z,15.37
2018-11-28T09:23:29.394Z,15.33
2018-11-28T09:26:15.338Z,15.77
2018-11-28T09:28:57.341Z,17.77
2018-11-28T09:31:38.986Z,15.80
2018-11-28T09:34:25.213Z,15.67
2018-11-28T09:37:07.597Z,14.20
2018-11-28T09:39:49.410Z,16.27
2018-11-28T09:42:34.418Z,16.10
2018-11-28T09:45:17.175Z,13.90
2018-11-28T09:47:58.876Z,15.07
2018-11-28T09:50:42.555Z,15.17
2018-11-28T09:53:23.707Z,14.83
2018-11-28T09:56:05.162Z,16.07
2018-11-28T09:58:46.774Z,16.03
2018-11-28T10:01:28.083Z,16.97
2018-11-28T10:04:09.284Z,14.87
2018-11-28T10:06:50.649Z,16.10
2018-11-28T10:09:32.353Z,13.93
2018-11-28T10:12:13.828Z,14.00
2018-11-28T10:14:55.712Z,13.57
2018-11-28T10:17:37.227Z,14.40
2018-11-28T10:20:19.246Z,14.70
2018-11-28T10:23:01.029Z,14.43
2018-11-28T10:25:42.444Z,12.53
2018-11-28T10:28:23.810Z,13.73
2018-11-28T10:31:05.436Z,13.27
2018-11-28T10:33:46.519Z,12.23
2018-11-28T10:36:28.057Z,12.67
2018-11-28T10:39:09.657Z,13.77
2018-11-28T10:41:51.901Z,14.13
2018-11-28T10:44:35.223Z,13.53
2018-11-28T10:47:16.581Z,14.63
2018-11-28T10:49:57.920Z,14.20
2018-11-28T10:52:39.954Z,14.63
2018-11-28T10:55:22.667Z,14.27
2018-11-28T10:58:04.755Z,14.70
2018-11-28T11:00:52.474Z,13.60
2018-11-28T11:03:39.307Z,14.63
2018-11-28T11:06:27.014Z,15.77
2018-11-28T11:09:14.578Z,14.43
2018-11-28T11:12:02.302Z,15.07
2018-11-28T11:14:46.764Z,15.53
2018-11-28T11:17:29.227Z,15.10
2018-11-28T11:20:11.107Z,16.13
2018-11-28T11:22:53.238Z,15.20
2018-11-28T11:25:34.405Z,16.07
2018-11-28T11:28:16.408Z,15.27
2018-11-28T11:30:58.490Z,14.63
2018-11-28T11:33:39.675Z,14.33
2018-11-28T11:36:21.834Z,14.30
2018-11-28T11:39:05.121Z,15.27
2018-11-28T11:41:50.038Z,15.93
2018-11-28T11:44:36.574Z,14.53
2018-11-28T11:47:18.202Z,15.53
2018-11-28T11:50:02.025Z,15.87
2018-11-28T11:52:43.911Z,16.50
2018-11-28T11:55:25.276Z,16.03
2018-11-28T11:58:07.143Z,15.87
2018-11-28T12:00:49.573Z,15.80
2018-11-28T12:03:31.591Z,14.77
2018-11-28T12:06:14.954Z,15.17
2018-11-28T12:08:56.261Z,13.97
2018-11-28T12:11:37.683Z,16.17
2018-11-28T12:14:19.195Z,14.77
2018-11-28T12:17:00.616Z,14.33
2018-11-28T12:19:42.398Z,14.60
2018-11-28T12:22:25.232Z,13.47
2018-11-28T12:25:07.373Z,15.03
2018-11-28T12:27:49.654Z,14.07
2018-11-28T12:30:31.263Z,14.57
2018-11-28T12:33:13.779Z,15.10
2018-11-28T12:35:56.714Z,16.07
2018-11-28T12:38:38.122Z,14.83
2018-11-28T12:41:21.650Z,14.83
2018-11-28T12:44:03.030Z,14.97
2018-11-28T12:46:44.394Z,15.03
2018-11-28T12:49:26.306Z,14.80
2018-11-28T12:52:08.421Z,15.23
2018-11-28T12:54:52.562Z,14.03
2018-11-28T12:57:34.351Z,14.67
2018-11-28T13:00:19.301Z,14.77
2018-11-28T13:03:00.974Z,14.67
2018-11-28T13:05:42.421Z,15.83
2018-11-28T13:08:24.202Z,14.00
2018-11-28T13:11:07.102Z,14.40
2018-11-28T13:13:50.482Z,14.90
2018-11-28T13:16:31.991Z,15.80
2018-11-28T13:19:13.286Z,14.70
2018-11-28T13:21:56.079Z,14.73
2018-11-28T13:24:37.182Z,14.67
2018-11-28T13:27:18.833Z,15.17
2018-11-28T13:30:01.500Z,16.03
2018-11-28T13:32:42.910Z,15.57
2018-11-28T13:35:26.000Z,16.30
2018-11-28T13:38:09.599Z,14.43
2018-11-28T13:40:50.958Z,15.47
2018-11-28T13:43:32.923Z,14.60
2018-11-28T13:46:14.894Z,16.73
2018-11-28T13:48:56.289Z,18.17
2018-11-28T13:51:38.214Z,16.03
2018-11-28T13:54:21.878Z,14.20
2018-11-28T13:57:04.505Z,12.20
2018-11-28T13:59:44.509Z,12.97
2018-11-28T14:02:25.597Z,14.23
2018-11-28T14:05:11.565Z,14.40
2018-11-28T14:07:53.572Z,14.97
2018-11-28T14:10:34.939Z,14.97
2018-11-28T14:13:17.216Z,15.60
2018-11-28T14:15:58.725Z,14.70
2018-11-28T14:18:40.238Z,14.63
2018-11-28T14:21:22.129Z,15.50
2018-11-28T14:24:04.127Z,14.10
2018-11-28T14:26:45.441Z,13.17
2018-11-28T14:29:27.437Z,11.70
2018-11-28T14:32:09.327Z,11.00
2018-11-28T14:34:50.773Z,12.43
2018-11-28T14:37:32.550Z,10.93
2018-11-28T14:40:15.430Z,10.37
2018-11-28T14:42:58.021Z,9.80
2018-11-28T14:45:40.287Z,11.20
2018-11-28T14:48:21.833Z,11.03
2018-11-28T14:51:03.477Z,11.63
2018-11-28T14:53:48.009Z,10.23
2018-11-28T14:56:27.513Z,10.40
2018-11-28T14:59:09.785Z,10.97
2018-11-28T15:01:51.916Z,11.33
2018-11-28T15:04:33.786Z,10.73
2018-11-28T15:07:15.109Z,10.73
2018-11-28T15:09:58.339Z,9.83
2018-11-28T15:12:40.684Z,9.60
2018-11-28T15:15:22.362Z,10.60
2018-11-28T15:18:04.403Z,10.50
2018-11-28T15:20:46.267Z,11.23
2018-11-28T15:23:27.698Z,10.70
2018-11-28T15:26:09.548Z,10.03
2018-11-28T15:28:51.453Z,10.73
2018-11-28T15:31:33.101Z,11.03
2018-11-28T15:34:23.285Z,11.83
2018-11-28T15:37:04.681Z,10.83
2018-11-28T15:39:46.154Z,11.20
2018-11-28T15:42:28.118Z,12.17
2018-11-28T15:45:10.011Z,11.03
2018-11-28T15:47:51.170Z,11.53
2018-11-28T15:50:32.983Z,12.50
2018-11-28T15:53:14.881Z,11.30
2018-11-28T15:55:56.358Z,11.17
2018-11-28T15:58:38.663Z,12.70
2018-11-28T16:01:20.144Z,11.33
2018-11-28T16:04:01.499Z,12.00
2018-11-28T16:06:44.185Z,11.17
2018-11-28T16:09:31.711Z,11.80
2018-11-28T16:12:14.462Z,11.73
2018-11-28T16:14:56.367Z,11.17
2018-11-28T16:17:40.617Z,12.13
2018-11-28T16:20:22.019Z,11.97
2018-11-28T16:23:04.900Z,12.87
2018-11-28T16:25:46.538Z,10.47
2018-11-28T16:28:27.871Z,11.23
2018-11-28T16:31:09.721Z,12.13
2018-11-28T16:33:53.599Z,11.80
2018-11-28T16:36:35.160Z,12.47
2018-11-28T16:39:16.791Z,12.00
2018-11-28T16:41:58.752Z,12.57
2018-11-28T16:44:40.942Z,10.87
2018-11-28T16:47:26.098Z,11.57
2018-11-28T16:50:08.854Z,11.60
2018-11-28T16:52:50.430Z,11.73
2018-11-28T16:55:32.282Z,12.27
2018-11-28T16:58:14.342Z,10.83
2018-11-28T17:00:57.071Z,12.40
2018-11-28T17:03:39.151Z,11.97
2018-11-28T17:06:20.620Z,12.67
2018-11-28T17:09:02.010Z,12.10
2018-11-28T17:11:43.599Z,11.87
2018-11-28T17:14:24.801Z,11.30
2018-11-28T17:17:07.241Z,12.27
2018-11-28T17:19:48.514Z,11.60
2018-11-28T17:22:32.604Z,12.53
2018-11-28T17:25:21.122Z,11.80
2018-11-28T17:28:02.774Z,12.37
2018-11-28T17:30:44.429Z,11.67
2018-11-28T17:33:25.641Z,11.50
2018-11-28T17:36:07.179Z,12.40
2018-11-28T17:38:48.609Z,12.40
2018-11-28T17:41:29.733Z,12.80
2018-11-28T17:44:11.247Z,11.53
2018-11-28T17:46:53.027Z,13.17
2018-11-28T17:49:35.090Z,15.03
2018-11-28T17:52:17.404Z,12.20
2018-11-28T17:55:00.722Z,13.27
2018-11-28T17:57:42.053Z,13.07
2018-11-28T18:00:23.882Z,14.43
2018-11-28T18:03:05.844Z,11.27
2018-11-28T18:05:47.406Z,12.83
2018-11-28T18:08:28.754Z,15.00
2018-11-28T18:11:13.630Z,14.87
2018-11-28T18:13:54.701Z,13.60
2018-11-28T18:16:36.296Z,13.93
2018-11-28T18:19:21.127Z,16.37
2018-11-28T18:22:03.174Z,15.13
2018-11-28T18:24:44.544Z,15.43
2018-11-28T18:27:26.323Z,17.67
2018-11-28T18:30:10.338Z,19.03
2018-11-28T18:32:52.681Z,17.37
2018-11-28T18:35:35.618Z,19.13
2018-11-28T18:38:17.841Z,22.40
2018-11-28T18:40:59.025Z,19.10
2018-11-28T18:43:40.692Z,18.80
2018-11-28T18:46:21.802Z,18.10
2018-11-28T18:49:03.279Z,18.17
2018-11-28T18:51:44.851Z,16.57
2018-11-28T18:54:25.995Z,17.57
2018-11-28T18:57:07.461Z,17.70
2018-11-28T18:59:50.631Z,17.27
2018-11-28T19:02:32.107Z,16.73
2018-11-28T19:05:13.704Z,18.13
2018-11-28T19:07:57.323Z,16.83
2018-11-28T19:10:39.418Z,16.60
2018-11-28T19:13:21.396Z,17.90
2018-11-28T19:16:03.603Z,16.00
2018-11-28T19:18:44.671Z,14.10
2018-11-28T19:21:26.136Z,14.37
2018-11-28T19:24:07.831Z,14.73
2018-11-28T19:26:49.002Z,14.90
2018-11-28T19:29:30.288Z,15.53
2018-11-28T19:32:12.348Z,16.33
2018-11-28T19:34:54.355Z,15.37
2018-11-28T19:37:35.666Z,16.00
2018-11-28T19:40:28.905Z,15.43
2018-11-28T19:43:10.607Z,16.07
2018-11-28T19:45:53.666Z,15.20
2018-11-28T19:48:35.443Z,13.53
2018-11-28T19:51:16.885Z,15.40
2018-11-28T19:53:58.806Z,13.43
2018-11-28T19:56:40.726Z,14.77
2018-11-28T19:59:22.160Z,13.43
2018-11-28T20:02:05.445Z,14.63
2018-11-28T20:04:47.785Z,14.67
2018-11-28T20:07:29.380Z,14.17
2018-11-28T20:10:14.422Z,14.03
2018-11-28T20:12:56.286Z,16.53
2018-11-28T20:15:39.850Z,14.97
2018-11-28T20:18:29.239Z,16.67
2018-11-28T20:21:18.763Z,18.00
2018-11-28T20:24:01.145Z,21.10
2018-11-28T20:26:43.686Z,20.60
2018-11-28T20:29:26.085Z,19.50
2018-11-28T20:32:08.138Z,17.17
2018-11-28T20:34:49.675Z,18.50
2018-11-28T20:37:32.589Z,17.60
2018-11-28T20:40:15.638Z,17.97
2018-11-28T20:42:57.403Z,18.57
2018-11-28T20:45:39.532Z,19.73
2018-11-28T20:48:21.128Z,19.53
2018-11-28T20:51:03.646Z,19.83
2018-11-28T20:53:45.956Z,19.90
2018-11-28T20:56:28.647Z,19.83
2018-11-28T20:59:10.796Z,19.13
2018-11-28T21:01:52.841Z,18.90
2018-11-28T21:04:34.694Z,18.17
2018-11-28T21:07:16.732Z,19.63
2018-11-28T21:10:03.227Z,18.30
2018-11-28T21:12:45.171Z,19.93
2018-11-28T21:15:27.307Z,20.00
2018-11-28T21:18:10.530Z,19.17
2018-11-28T21:20:51.918Z,19.37
2018-11-28T21:23:33.267Z,15.77
2018-11-28T21:26:15.247Z,16.63
2018-11-28T21:28:57.116Z,17.57
2018-11-28T21:31:39.518Z,17.97
2018-11-28T21:34:23.286Z,17.63
2018-11-28T21:37:05.377Z,17.77
2018-11-28T21:39:55.819Z,15.10
2018-11-28T21:42:37.235Z,15.60
2018-11-28T21:45:20.278Z,16.27
2018-11-28T21:48:03.061Z,14.13
2018-11-28T21:50:44.210Z,13.57
2018-11-28T21:53:25.978Z,13.17
2018-11-28T21:56:07.539Z,12.07
2018-11-28T21:58:49.573Z,11.57
2018-11-28T22:01:30.998Z,11.70
2018-11-28T22:04:12.846Z,11.77
2018-11-28T22:06:54.882Z,10.50
2018-11-28T22:09:36.285Z,10.43
2018-11-28T22:12:18.346Z,10.47
2018-11-28T22:15:01.921Z,9.83
2018-11-28T22:17:48.256Z,10.50
2018-11-28T22:20:31.758Z,11.33
2018-11-28T22:23:21.128Z,10.03
2018-11-28T22:26:09.449Z,9.40
2018-11-28T22:29:00.466Z,9.10
2018-11-28T22:31:43.694Z,10.10
2018-11-28T22:34:27.906Z,9.43
2018-11-28T22:37:10.986Z,10.13
2018-11-28T22:39:53.863Z,10.37
2018-11-28T22:42:41.824Z,9.77
2018-11-28T22:45:28.292Z,9.37
2018-11-28T22:48:17.425Z,9.53
2018-11-28T22:51:06.321Z,9.83
2018-11-28T22:53:48.078Z,10.30
2018-11-28T22:56:29.458Z,9.63
2018-11-28T22:59:10.793Z,10.23
2018-11-28T23:02:57.161Z,9.00
2018-11-28T23:05:41.746Z,9.77
2018-11-28T23:08:23.106Z,10.27
2018-11-28T23:11:05.330Z,9.57
2018-11-28T23:13:46.930Z,9.77
2018-11-28T23:16:28.381Z,9.97
2018-11-28T23:19:10.222Z,10.67
2018-11-28T23:21:52.110Z,10.97
2018-11-28T23:24:33.546Z,9.87
2018-11-28T23:27:15.608Z,10.83
2018-11-28T23:29:57.402Z,11.47
2018-11-28T23:32:38.758Z,9.30
2018-11-28T23:35:20.550Z,10.67
2018-11-28T23:38:01.631Z,10.33
2018-11-28T23:40:43.205Z,10.73
2018-11-28T23:43:25.158Z,11.40
2018-11-28T23:46:07.158Z,10.80
2018-11-28T23:48:48.341Z,11.40
2018-11-28T23:51:30.118Z,11.03
2018-11-28T23:54:11.234Z,11.77
2018-11-28T23:56:52.586Z,11.77
2018-11-28T23:59:36.935Z,11.50
